Time;durP1;ratioP1;P1;durP2;ratioP2;P2;SDS_P1;SDS_P2;PMS_P1;PMS_P2;Temp;Humidity;BMP_temperature;BMP_pressure;BME280_temperature;BME280_humidity;BME280_pressure;Samples;Min_cycle;Max_cycle;Signal;HPM_P1;HPM_P2
2022/06/12 00:01:16;;;;;;;21.53;19.20;;;18.10;10.90;;;;;;4964016;28;20191;-76
2022/06/12 00:03:42;;;;;;;13.57;10.50;;;18.10;11.60;;;;;;4971764;28;20649;-75
2022/06/12 00:06:07;;;;;;;18.53;10.67;;;18.00;14.40;;;;;;4966657;28;20523;-74
2022/06/12 00:08:35;;;;;;;10.67;7.20;;;18.00;15.20;;;;;;4976323;28;20638;-74
2022/06/12 00:11:04;;;;;;;7.10;6.40;;;18.00;17.20;;;;;;4953283;28;20207;-75
2022/06/12 00:13:33;;;;;;;12.00;8.27;;;18.00;17.20;;;;;;4988310;28;20406;-75
2022/06/12 00:15:59;;;;;;;12.00;7.80;;;18.00;15.90;;;;;;4989605;28;20414;-75
2022/06/12 00:18:25;;;;;;;10.10;8.97;;;18.00;17.00;;;;;;4982719;28;20422;-76
2022/06/12 00:21:10;;;;;;;15.60;11.13;;;18.00;16.50;;;;;;4991650;28;20301;-75
2022/06/12 00:23:41;;;;;;;24.20;21.00;;;17.90;16.90;;;;;;4991359;28;20402;-75
2022/06/12 00:26:07;;;;;;;22.63;19.17;;;17.90;18.60;;;;;;4991770;28;20414;-75
2022/06/12 00:28:33;;;;;;;18.90;13.40;;;17.80;18.20;;;;;;4987703;28;20445;-75
2022/06/12 00:30:58;;;;;;;18.63;10.70;;;17.70;21.00;;;;;;4963318;28;20180;-75
2022/06/12 00:33:24;;;;;;;10.63;8.50;;;17.70;22.30;;;;;;4971232;28;20291;-75
2022/06/12 00:35:50;;;;;;;10.07;8.80;;;;;;;;;;4971618;28;20180;-75
2022/06/12 00:38:15;;;;;;;9.63;8.60;;;17.70;21.70;;;;;;4971486;28;20483;-75
2022/06/12 00:40:41;;;;;;;15.50;11.13;;;17.60;25.10;;;;;;4972276;28;20173;-75
2022/06/12 00:43:07;;;;;;;40.00;30.70;;;17.50;27.40;;;;;;4971135;28;20669;-75
2022/06/12 00:45:54;;;;;;;30.30;26.40;;;17.50;26.70;;;;;;4971405;28;20168;-75
2022/06/12 00:48:27;;;;;;;23.40;15.30;;;17.50;32.70;;;;;;4965045;28;20184;-75
2022/06/12 00:51:03;;;;;;;16.03;10.20;;;17.40;31.50;;;;;;4970782;28;20462;-75
2022/06/12 00:53:39;;;;;;;15.07;11.97;;;17.40;30.20;;;;;;4969565;28;20410;-75
2022/06/12 00:56:26;;;;;;;14.60;11.73;;;17.20;29.50;;;;;;4968451;28;20488;-75
2022/06/12 00:58:59;;;;;;;39.43;28.57;;;17.20;31.30;;;;;;4971226;28;20421;-75
2022/06/12 01:01:30;;;;;;;32.37;21.50;;;17.10;32.20;;;;;;4962778;28;20415;-75
2022/06/12 01:06:43;;;;;;;25.50;18.67;;;17.00;36.00;;;;;;4952161;29;20438;-75
2022/06/12 01:09:16;;;;;;;22.03;15.87;;;17.10;39.00;;;;;;4951749;28;20795;-75
2022/06/12 01:11:45;;;;;;;13.00;9.20;;;17.10;38.20;;;;;;4951502;28;20501;-76
2022/06/12 01:14:16;;;;;;;17.20;9.83;;;17.10;34.70;;;;;;4950574;28;20447;-76
2022/06/12 01:16:48;;;;;;;8.93;8.03;;;17.10;37.70;;;;;;4950429;29;20432;-75
2022/06/12 01:19:26;;;;;;;10.57;7.73;;;17.00;43.40;;;;;;4949074;28;20534;-75
2022/06/12 01:22:05;;;;;;;9.70;7.33;;;17.10;42.60;;;;;;4951479;29;20495;-75
2022/06/12 01:24:51;;;;;;;9.43;7.50;;;17.20;40.80;;;;;;4950621;29;20447;-76
2022/06/12 01:27:56;;;;;;;8.10;6.93;;;17.20;44.00;;;;;;4961358;28;20865;-75
2022/06/12 01:30:31;;;;;;;9.30;6.50;;;17.00;44.00;;;;;;4978750;28;20427;-75
2022/06/12 01:33:15;;;;;;;8.63;6.80;;;17.00;43.80;;;;;;4950509;28;20907;-75
2022/06/12 01:36:01;;;;;;;7.50;5.20;;;17.00;43.80;;;;;;4951167;29;20412;-75
2022/06/12 01:38:33;;;;;;;6.63;5.90;;;16.90;43.80;;;;;;4951202;29;20409;-75
2022/06/12 01:41:08;;;;;;;7.00;6.30;;;16.90;43.70;;;;;;4951326;29;20514;-75
2022/06/12 01:43:41;;;;;;;7.17;6.47;;;16.90;43.80;;;;;;4951429;29;20423;-75
2022/06/12 01:46:22;;;;;;;8.70;6.27;;;16.90;41.60;;;;;;4951025;29;20864;-74
2022/06/12 01:49:13;;;;;;;7.60;6.03;;;16.90;43.80;;;;;;4949184;29;20416;-76
2022/06/12 01:51:52;;;;;;;9.50;6.53;;;16.80;43.70;;;;;;4951013;29;20732;-75
2022/06/12 01:54:29;;;;;;;6.50;5.70;;;16.80;43.70;;;;;;4951102;28;20524;-76
2022/06/12 01:57:09;;;;;;;8.80;6.40;;;16.80;43.70;;;;;;4951437;28;20423;-76
2022/06/12 01:59:39;;;;;;;7.80;6.43;;;16.80;43.70;;;;;;4963405;28;20514;-75
2022/06/12 02:02:28;;;;;;;8.13;6.13;;;16.70;43.60;;;;;;4962027;28;20606;-75
2022/06/12 02:05:22;;;;;;;7.20;6.10;;;16.70;43.60;;;;;;4969553;28;20435;-75
2022/06/12 02:08:02;;;;;;;7.33;5.40;;;16.60;43.60;;;;;;4969317;28;20443;-75
2022/06/12 02:10:33;;;;;;;6.37;5.37;;;16.50;43.50;;;;;;4970748;28;20415;-75
2022/06/12 02:13:32;;;;;;;6.70;6.00;;;16.50;43.50;;;;;;4969420;28;20900;-76
2022/06/12 02:16:10;;;;;;;6.47;5.33;;;16.40;43.40;;;;;;4970200;28;20415;-75
2022/06/12 02:18:50;;;;;;;11.10;6.50;;;16.40;43.30;;;;;;4971926;28;20441;-75
2022/06/12 02:21:27;;;;;;;7.03;6.13;;;16.50;43.40;;;;;;4975937;28;20746;-75
2022/06/12 02:24:01;;;;;;;6.20;5.60;;;16.50;43.60;;;;;;4988343;28;20409;-75
2022/06/12 02:26:32;;;;;;;7.17;5.30;;;16.50;43.50;;;;;;4989627;28;20446;-75
2022/06/12 02:29:06;;;;;;;6.17;4.90;;;16.50;43.50;;;;;;4978720;28;20946;-74
2022/06/12 02:31:36;;;;;;;5.50;5.00;;;16.60;43.50;;;;;;4957406;28;20567;-75
2022/06/12 02:34:07;;;;;;;6.73;5.17;;;16.50;43.40;;;;;;4949950;29;20408;-75
2022/06/12 02:36:46;;;;;;;5.67;5.07;;;16.50;43.40;;;;;;4949471;28;20443;-75
2022/06/12 02:39:17;;;;;;;5.80;5.20;;;16.50;43.50;;;;;;4949186;29;20454;-75
2022/06/12 02:42:01;;;;;;;8.73;5.97;;;16.50;43.50;;;;;;4950397;29;20835;-74
2022/06/12 02:44:42;;;;;;;7.67;5.13;;;16.50;43.40;;;;;;4950902;28;20416;-74
2022/06/12 02:47:21;;;;;;;6.20;5.60;;;16.50;43.40;;;;;;4949876;29;20432;-73
2022/06/12 02:49:49;;;;;;;8.13;5.53;;;16.40;43.40;;;;;;4965008;28;20411;-75
2022/06/12 02:52:35;;;;;;;5.67;5.10;;;16.40;43.30;;;;;;4967472;28;21076;-75
2022/06/12 02:55:05;;;;;;;5.30;4.70;;;16.50;43.40;;;;;;4967944;28;20578;-75
2022/06/12 02:57:49;;;;;;;7.17;5.00;;;16.50;43.50;;;;;;4979601;28;20444;-74
2022/06/12 03:00:22;;;;;;;8.27;5.40;;;16.50;43.50;;;;;;4963412;28;20423;-75
2022/06/12 03:03:12;;;;;;;6.37;4.90;;;16.40;43.30;;;;;;4950611;28;20903;-75
2022/06/12 03:05:41;;;;;;;5.97;4.97;;;16.30;43.20;;;;;;4949725;29;21035;-75
2022/06/12 03:08:16;;;;;;;8.70;5.50;;;16.20;43.20;;;;;;4949879;28;20516;-75
2022/06/12 03:10:53;;;;;;;6.43;5.83;;;16.20;47.30;;;;;;4950694;29;20455;-76
2022/06/12 03:13:20;;;;;;;10.53;5.57;;;16.20;47.00;;;;;;4950272;29;20400;-73
2022/06/12 03:15:58;;;;;;;5.50;5.00;;;16.20;44.90;;;;;;4949219;28;20431;-76
2022/06/12 03:18:32;;;;;;;6.23;5.20;;;16.30;43.40;;;;;;4949436;29;20503;-73
2022/06/12 03:21:31;;;;;;;7.77;5.30;;;16.20;43.30;;;;;;4949585;28;20864;-75
2022/06/12 03:24:21;;;;;;;8.60;6.00;;;16.10;43.60;;;;;;4949906;29;20496;-75
2022/06/12 03:27:01;;;;;;;7.50;5.33;;;16.00;43.70;;;;;;4956010;28;20585;-75
2022/06/12 03:29:33;;;;;;;7.77;5.90;;;16.00;50.10;;;;;;4976426;28;20422;-74
2022/06/12 03:32:18;;;;;;;8.00;5.20;;;15.90;58.00;;;;;;4957569;28;20786;-75
2022/06/12 03:35:02;;;;;;;8.37;5.23;;;15.90;57.80;;;;;;4949724;28;20412;-74
2022/06/12 03:37:52;;;;;;;6.73;5.27;;;15.90;59.90;;;;;;4949873;29;20438;-75
2022/06/12 03:40:56;;;;;;;7.00;5.17;;;15.80;62.20;;;;;;4950680;29;20409;-75
2022/06/12 03:43:44;;;;;;;6.80;4.80;;;15.80;60.70;;;;;;4953311;29;20419;-75
2022/06/12 03:46:13;;;;;;;8.13;5.17;;;16.00;57.00;;;;;;4953692;29;20926;-75
2022/06/12 03:49:01;;;;;;;6.30;5.27;;;16.00;57.20;;;;;;4952891;29;20467;-75
2022/06/12 03:51:36;;;;;;;8.20;5.20;;;16.10;58.30;;;;;;4952484;29;20511;-75
2022/06/12 03:54:47;;;;;;;8.13;5.40;;;16.00;62.30;;;;;;4953252;29;20478;-75
2022/06/12 03:57:53;;;;;;;7.23;5.13;;;16.10;57.20;;;;;;4953662;28;20801;-75
2022/06/12 04:00:39;;;;;;;7.40;5.60;;;16.10;59.20;;;;;;4963372;28;20569;-75
2022/06/12 04:03:30;;;;;;;8.10;4.73;;;16.20;59.70;;;;;;4951844;29;21138;-75
2022/06/12 04:06:03;;;;;;;7.17;5.37;;;16.20;57.80;;;;;;4955373;28;20420;-74
2022/06/12 04:08:40;;;;;;;7.33;5.30;;;16.50;55.70;;;;;;4970376;28;20459;-75
2022/06/12 04:11:08;;;;;;;9.20;5.50;;;16.30;57.80;;;;;;4972153;28;20469;-74
2022/06/12 04:13:37;;;;;;;8.67;6.03;;;16.20;57.60;;;;;;4972353;28;20862;-75
2022/06/12 04:16:12;;;;;;;6.93;5.10;;;16.20;58.60;;;;;;4975294;28;20415;-75
2022/06/12 04:18:38;;;;;;;6.70;5.63;;;16.20;59.50;;;;;;4971578;28;20757;-75
2022/06/12 04:21:10;;;;;;;10.73;5.63;;;16.20;60.30;;;;;;4970039;28;20437;-74
2022/06/12 04:24:01;;;;;;;6.80;5.50;;;16.30;61.20;;;;;;4971893;28;20219;-75
2022/06/12 04:26:33;;;;;;;8.00;5.30;;;16.40;57.10;;;;;;4972278;28;20470;-74
2022/06/12 04:29:06;;;;;;;7.50;5.83;;;16.50;57.10;;;;;;4968676;28;20444;-74
2022/06/12 04:31:34;;;;;;;7.30;5.20;;;16.50;58.90;;;;;;4959968;28;20623;-75
2022/06/12 04:34:24;;;;;;;5.43;4.93;;;16.60;58.10;;;;;;4952003;29;20408;-76
2022/06/12 04:36:56;;;;;;;8.70;5.83;;;16.70;53.90;;;;;;4951569;29;20436;-75
2022/06/12 04:39:26;;;;;;;9.40;6.10;;;16.70;53.70;;;;;;4952388;29;20409;-74
2022/06/12 04:41:53;;;;;;;8.80;6.30;;;16.80;56.60;;;;;;4952428;28;20430;-76
2022/06/12 04:44:19;;;;;;;8.23;5.90;;;16.80;57.30;;;;;;4970045;28;20928;-75
2022/06/12 04:46:47;;;;;;;7.17;6.20;;;16.90;54.90;;;;;;4971647;28;20480;-75
2022/06/12 04:49:18;;;;;;;7.50;6.00;;;16.90;56.20;;;;;;4969735;28;20550;-75
2022/06/12 04:51:44;;;;;;;8.93;6.30;;;17.00;57.30;;;;;;4971264;28;20454;-75
2022/06/12 04:54:10;;;;;;;8.70;6.97;;;17.00;60.00;;;;;;4970410;28;20770;-74
2022/06/12 04:56:36;;;;;;;6.87;6.17;;;17.00;59.90;;;;;;4970291;28;20435;-75
2022/06/12 04:59:03;;;;;;;8.30;6.70;;;17.10;59.10;;;;;;4968170;28;20341;-75
2022/06/12 05:01:29;;;;;;;14.83;5.77;;;17.20;56.10;;;;;;4959509;28;20185;-75
2022/06/12 05:03:56;;;;;;;8.40;6.43;;;17.30;53.60;;;;;;4951411;28;20491;-75
2022/06/12 05:06:22;;;;;;;10.07;6.60;;;17.50;47.80;;;;;;4951842;29;20620;-76
2022/06/12 05:08:48;;;;;;;8.07;5.97;;;17.60;44.50;;;;;;4951454;28;20454;-75
2022/06/12 05:11:16;;;;;;;13.40;7.37;;;17.60;44.50;;;;;;4951464;28;20459;-75
2022/06/12 05:13:42;;;;;;;7.70;6.37;;;17.60;44.70;;;;;;4952318;28;20243;-76
2022/06/12 05:16:08;;;;;;;10.30;6.60;;;17.70;47.90;;;;;;4951885;29;20416;-76
2022/06/12 05:18:34;;;;;;;10.87;6.83;;;17.70;49.60;;;;;;4951083;28;20271;-75
2022/06/12 05:21:00;;;;;;;8.83;6.90;;;17.70;45.70;;;;;;4964869;28;20526;-73
2022/06/12 05:23:26;;;;;;;8.40;6.67;;;17.80;44.80;;;;;;4970211;28;20347;-76
2022/06/12 05:25:52;;;;;;;8.50;5.97;;;18.00;44.70;;;;;;4971195;28;20262;-75
2022/06/12 05:28:19;;;;;;;10.60;7.03;;;18.00;44.80;;;;;;4971079;28;20483;-75
2022/06/12 05:30:45;;;;;;;9.30;7.00;;;18.10;44.70;;;;;;4959946;28;20481;-75
2022/06/12 05:33:11;;;;;;;9.70;7.07;;;18.20;44.80;;;;;;4950282;28;20427;-75
2022/06/12 05:35:39;;;;;;;7.37;6.60;;;18.30;45.00;;;;;;4951350;29;20414;-75
2022/06/12 05:38:07;;;;;;;8.10;7.07;;;18.40;45.40;;;;;;4950910;29;20511;-75
2022/06/12 05:40:36;;;;;;;10.43;6.90;;;18.50;45.10;;;;;;4951599;28;20427;-75
2022/06/12 05:43:02;;;;;;;10.20;7.60;;;18.40;45.00;;;;;;4950772;28;20424;-76
2022/06/12 05:45:30;;;;;;;10.50;6.97;;;18.70;45.20;;;;;;4951440;29;20408;-75
2022/06/12 05:48:02;;;;;;;9.00;7.53;;;18.80;45.30;;;;;;4950571;29;20448;-75
2022/06/12 05:50:31;;;;;;;9.97;7.50;;;19.00;39.60;;;;;;4950928;29;20466;-75
2022/06/12 05:52:58;;;;;;;9.47;7.07;;;18.80;35.70;;;;;;4948462;28;20931;-75
2022/06/12 05:55:24;;;;;;;8.30;7.30;;;19.20;35.50;;;;;;4951446;29;20836;-74
2022/06/12 05:57:49;;;;;;;8.27;7.30;;;19.30;34.10;;;;;;4951094;28;20611;-75
2022/06/12 06:00:24;;;;;;;12.20;7.67;;;19.30;31.10;;;;;;4960894;28;20274;-75
2022/06/12 06:02:50;;;;;;;9.27;7.43;;;19.40;31.00;;;;;;4950615;28;20662;-74
2022/06/12 06:05:16;;;;;;;12.77;8.17;;;19.50;28.10;;;;;;4962159;28;20443;-74
2022/06/12 06:07:42;;;;;;;9.30;7.30;;;19.60;27.40;;;;;;4962092;28;20665;-74
2022/06/12 06:10:13;;;;;;;8.90;8.00;;;19.70;26.20;;;;;;4968909;28;20186;-75
2022/06/12 06:12:39;;;;;;;9.13;7.20;;;19.70;24.70;;;;;;4969550;28;20467;-76
2022/06/12 06:15:05;;;;;;;10.90;7.70;;;19.80;25.10;;;;;;4969045;28;21008;-75
2022/06/12 06:17:31;;;;;;;8.77;7.60;;;19.90;23.50;;;;;;4969464;28;20272;-76
2022/06/12 06:19:56;;;;;;;8.60;7.67;;;20.00;20.30;;;;;;4969669;28;20435;-75
2022/06/12 06:22:22;;;;;;;10.87;7.83;;;20.20;19.90;;;;;;4969174;28;20213;-75
2022/06/12 06:24:47;;;;;;;9.60;7.40;;;20.30;16.20;;;;;;4970326;28;20254;-75
2022/06/12 06:27:15;;;;;;;12.40;8.23;;;20.40;16.60;;;;;;4970026;28;20206;-76
2022/06/12 06:29:41;;;;;;;10.40;8.03;;;20.60;9.50;;;;;;4962110;28;20390;-76
2022/06/12 06:32:08;;;;;;;10.90;8.20;;;20.70;12.50;;;;;;4956330;28;20595;-75
2022/06/12 06:34:37;;;;;;;13.33;7.60;;;20.80;9.60;;;;;;4950438;28;21190;-76
2022/06/12 06:37:04;;;;;;;10.17;7.73;;;20.90;8.40;;;;;;4950768;28;20435;-74
2022/06/12 06:39:30;;;;;;;11.67;8.53;;;21.00;7.80;;;;;;4950379;28;20906;-76
2022/06/12 06:41:56;;;;;;;11.20;7.43;;;21.00;6.10;;;;;;4950192;29;20430;-75
2022/06/12 06:47:06;;;;;;;14.20;7.57;;;21.10;4.40;;;;;;4969594;28;20277;-75
2022/06/12 06:49:31;;;;;;;10.80;8.00;;;21.30;1.20;;;;;;4967768;28;20988;-75
2022/06/12 06:51:57;;;;;;;18.43;8.17;;;21.30;1.00;;;;;;4968821;28;20211;-76
2022/06/12 06:54:22;;;;;;;10.07;7.30;;;21.40;1.00;;;;;;4969488;28;20171;-75
2022/06/12 06:56:49;;;;;;;11.63;7.83;;;21.50;1.00;;;;;;4970005;28;20248;-75
2022/06/12 06:59:16;;;;;;;12.70;7.60;;;21.70;1.00;;;;;;4963996;28;20184;-74
2022/06/12 07:01:41;;;;;;;11.23;7.38;;;21.80;1.00;;;;;;4956775;28;20420;-73
2022/06/12 07:04:07;;;;;;;12.00;8.07;;;22.00;1.00;;;;;;4948338;28;20192;-75
2022/06/12 07:06:33;;;;;;;11.97;7.23;;;22.20;1.00;;;;;;4950161;28;20191;-75
2022/06/12 07:08:59;;;;;;;10.63;7.13;;;22.40;1.00;;;;;;4948577;28;20180;-75
2022/06/12 07:11:25;;;;;;;11.83;7.80;;;22.60;1.00;;;;;;4949856;28;20200;-75
2022/06/12 07:13:52;;;;;;;18.43;6.90;;;22.80;1.00;;;;;;4950216;28;20165;-75
2022/06/12 07:16:19;;;;;;;10.77;6.50;;;23.00;1.00;;;;;;4949760;28;21000;-75
2022/06/12 07:18:45;;;;;;;9.17;7.00;;;23.30;1.00;;;;;;4953413;29;20495;-76
2022/06/12 07:21:11;;;;;;;10.90;6.67;;;23.50;1.00;;;;;;4968118;28;20558;-75
2022/06/12 07:23:38;;;;;;;7.70;6.30;;;23.60;1.00;;;;;;4973032;28;20637;-75
2022/06/12 07:26:07;;;;;;;10.50;6.13;;;23.70;1.00;;;;;;4973276;28;20418;-76
2022/06/12 07:28:36;;;;;;;9.90;6.23;;;23.70;1.00;;;;;;4972993;28;20430;-75
2022/06/12 07:31:03;;;;;;;13.57;6.30;;;23.80;1.00;;;;;;4961130;28;20458;-75
2022/06/12 07:33:29;;;;;;;12.33;6.00;;;24.00;1.00;;;;;;4953095;28;20914;-75
2022/06/12 07:35:55;;;;;;;8.67;6.10;;;24.10;1.00;;;;;;4953551;29;20933;-75
2022/06/12 07:38:23;;;;;;;11.10;5.77;;;24.40;1.00;;;;;;4953234;28;20404;-75
2022/06/12 07:40:54;;;;;;;9.37;6.03;;;24.50;1.00;;;;;;4953761;29;20244;-75
2022/06/12 07:43:20;;;;;;;7.37;5.63;;;24.80;1.00;;;;;;4953472;28;20417;-75
2022/06/12 07:45:46;;;;;;;8.00;5.70;;;25.20;1.00;;;;;;4953605;29;20442;-76
2022/06/12 07:48:12;;;;;;;12.00;6.40;;;25.50;1.00;;;;;;4952539;29;20447;-75
2022/06/12 07:50:40;;;;;;;7.23;5.93;;;25.50;1.00;;;;;;4953284;29;20853;-76
2022/06/12 07:53:06;;;;;;;14.27;6.63;;;25.60;1.00;;;;;;4951038;29;20443;-75
2022/06/12 07:55:31;;;;;;;8.10;5.90;;;25.70;1.00;;;;;;4955404;28;20458;-76
2022/06/12 07:57:57;;;;;;;10.03;5.47;;;25.90;1.00;;;;;;4973208;28;20199;-76
2022/06/12 08:00:24;;;;;;;6.93;5.80;;;26.00;1.00;;;;;;4964725;28;20526;-75
2022/06/12 08:02:49;;;;;;;8.47;5.50;;;26.20;1.00;;;;;;4952939;28;20183;-76
2022/06/12 08:05:18;;;;;;;10.10;5.90;;;26.40;1.00;;;;;;4952947;29;20438;-75
2022/06/12 08:07:43;;;;;;;7.60;5.50;;;26.50;1.00;;;;;;4968764;28;20286;-76
2022/06/12 08:10:11;;;;;;;7.30;5.57;;;26.80;1.00;;;;;;4972424;28;20498;-75
2022/06/12 08:12:38;;;;;;;8.33;6.37;;;27.20;1.00;;;;;;4970087;28;20660;-76
2022/06/12 08:15:11;;;;;;;8.30;5.73;;;27.50;1.00;;;;;;4972427;28;20835;-75
2022/06/12 08:17:37;;;;;;;7.10;5.80;;;27.60;1.00;;;;;;4971609;28;20433;-76
2022/06/12 08:22:47;;;;;;;6.90;5.77;;;27.70;1.00;;;;;;4971085;28;20245;-76
2022/06/12 08:25:13;;;;;;;7.23;5.47;;;27.60;1.00;;;;;;4972344;28;20792;-75
2022/06/12 08:27:39;;;;;;;13.70;5.33;;;27.50;1.00;;;;;;4971035;28;20199;-76
2022/06/12 08:30:06;;;;;;;7.93;5.80;;;27.60;1.00;;;;;;4962785;28;20700;-76
2022/06/12 08:32:32;;;;;;;6.57;5.83;;;27.80;1.00;;;;;;4954978;28;20294;-75
2022/06/12 08:35:03;;;;;;;8.70;5.67;;;28.00;1.00;;;;;;4951812;29;20415;-75
2022/06/12 08:37:32;;;;;;;6.93;5.23;;;28.20;1.00;;;;;;4952343;29;20420;-76
2022/06/12 08:39:58;;;;;;;7.20;5.20;;;28.40;1.00;;;;;;4949042;28;20643;-76
2022/06/12 08:42:31;;;;;;;5.93;5.33;;;28.50;1.00;;;;;;4954114;28;20545;-75
2022/06/12 08:45:17;;;;;;;7.23;5.20;;;28.50;1.00;;;;;;4971220;28;20229;-76
2022/06/12 08:48:20;;;;;;;8.43;5.27;;;28.80;1.00;;;;;;4970880;28;20187;-76
2022/06/12 08:51:09;;;;;;;7.87;4.83;;;29.10;1.00;;;;;;4971533;28;20207;-76
2022/06/12 08:53:47;;;;;;;6.73;5.07;;;29.50;1.00;;;;;;4971394;28;20240;-78
2022/06/12 08:56:24;;;;;;;6.80;4.60;;;29.80;1.00;;;;;;4971670;28;20217;-75
2022/06/12 08:59:15;;;;;;;7.47;4.17;;;30.00;1.00;;;;;;4969706;28;20214;-76
2022/06/12 09:01:42;;;;;;;5.40;4.27;;;30.10;1.00;;;;;;4959544;28;20539;-76
2022/06/12 09:04:11;;;;;;;9.70;3.73;;;30.20;1.00;;;;;;4949818;28;20279;-76
2022/06/12 09:06:49;;;;;;;5.60;3.40;;;30.50;1.00;;;;;;4952202;29;20210;-74
2022/06/12 09:09:24;;;;;;;4.83;3.47;;;31.30;1.00;;;;;;4951930;29;20164;-75
2022/06/12 09:12:09;;;;;;;5.47;3.33;;;32.60;1.00;;;;;;4951530;29;20709;-77
2022/06/12 09:14:40;;;;;;;4.55;3.65;;;33.70;1.00;;;;;;4952267;29;20396;-76
2022/06/12 09:17:43;;;;;;;5.10;3.60;;;34.70;1.00;;;;;;4951631;29;20591;-77
2022/06/12 09:20:28;;;;;;;4.60;2.95;;;35.60;1.00;;;;;;4955957;28;20275;-77
2022/06/12 09:23:27;;;;;;;6.80;2.90;;;36.30;1.00;;;;;;4969826;28;20210;-77
2022/06/12 09:26:19;;;;;;;7.07;3.63;;;36.80;1.00;;;;;;4971340;28;20175;-77
2022/06/12 09:28:44;;;;;;;4.22;3.08;;;37.20;1.00;;;;;;4953908;28;20465;-76
2022/06/12 09:31:43;;;;;;;4.93;3.30;;;37.80;1.00;;;;;;4958847;28;20227;-77
2022/06/12 09:34:17;;;;;;;6.03;3.85;;;38.40;1.00;;;;;;4945932;28;20667;-76
2022/06/12 09:36:54;;;;;;;5.68;4.32;;;38.80;1.00;;;;;;4951649;29;20191;-77
2022/06/12 09:39:20;;;;;;;5.93;3.10;;;39.70;1.00;;;;;;4950781;28;20230;-77
2022/06/12 09:41:47;;;;;;;5.47;2.85;;;40.50;1.00;;;;;;4951024;29;20208;-77
2022/06/12 09:44:35;;;;;;;4.15;3.08;;;40.90;1.00;;;;;;4950141;28;20199;-76
2022/06/12 09:47:20;;;;;;;3.85;3.03;;;40.90;1.00;;;;;;4951328;29;20247;-77
2022/06/12 09:50:07;;;;;;;7.45;2.97;;;40.80;1.00;;;;;;4950999;29;20191;-76
2022/06/12 09:53:24;;;;;;;4.88;3.30;;;40.70;1.00;;;;;;4950136;28;20226;-77
2022/06/12 09:56:07;;;;;;;5.40;3.10;;;41.20;1.00;;;;;;4942791;28;20387;-76
2022/06/12 09:58:43;;;;;;;5.32;3.03;;;41.00;1.00;;;;;;4958585;28;20661;-77
2022/06/12 10:01:26;;;;;;;5.78;2.80;;;40.90;1.00;;;;;;4958502;28;20172;-77
2022/06/12 10:04:03;;;;;;;7.20;3.40;;;40.90;1.00;;;;;;4950500;28;20270;-77
2022/06/12 10:06:43;;;;;;;5.15;2.90;;;39.80;1.00;;;;;;4950794;28;20522;-77
2022/06/12 10:09:16;;;;;;;5.30;3.00;;;39.50;1.00;;;;;;4968299;28;20274;-77
2022/06/12 10:11:46;;;;;;;3.45;2.92;;;39.60;1.00;;;;;;4969926;28;20234;-77
2022/06/12 10:14:36;;;;;;;4.32;3.03;;;40.30;1.00;;;;;;4970463;28;20648;-78
2022/06/12 10:17:30;;;;;;;6.40;3.08;;;41.10;1.00;;;;;;4968719;28;20294;-77
2022/06/12 10:20:15;;;;;;;5.15;3.10;;;40.40;1.00;;;;;;4969766;28;20171;-77
2022/06/12 10:22:44;;;;;;;5.07;3.20;;;38.10;1.00;;;;;;4969332;28;20668;-75
2022/06/12 10:25:32;;;;;;;7.25;3.55;;;36.30;1.00;;;;;;4970500;28;20191;-77
2022/06/12 10:28:01;;;;;;;6.07;4.40;;;37.80;1.00;;;;;;4968712;28;20201;-77
2022/06/12 10:30:42;;;;;;;4.85;3.30;;;37.40;1.00;;;;;;4962375;28;20677;-76
2022/06/12 10:33:14;;;;;;;5.43;2.90;;;37.00;1.00;;;;;;4949530;29;20175;-76
2022/06/12 10:35:58;;;;;;;4.25;2.95;;;37.90;1.00;;;;;;4950667;29;20219;-76
2022/06/12 10:38:30;;;;;;;9.30;3.03;;;39.00;1.00;;;;;;4961989;28;20620;-77
2022/06/12 10:41:02;;;;;;;4.32;2.75;;;39.60;1.00;;;;;;4969951;28;20175;-77
2022/06/12 10:43:37;;;;;;;4.35;3.13;;;39.40;1.00;;;;;;4966572;28;20179;-77
2022/06/12 10:46:22;;;;;;;5.25;3.08;;;39.60;1.00;;;;;;4970116;28;20736;-77
2022/06/12 10:49:00;;;;;;;5.55;3.13;;;39.70;1.00;;;;;;4967773;28;20751;-77
2022/06/12 10:51:39;;;;;;;4.82;2.50;;;40.80;1.00;;;;;;4970209;28;20206;-77
2022/06/12 10:54:26;;;;;;;5.50;2.70;;;41.50;1.00;;;;;;4973238;28;20218;-78
2022/06/12 10:57:11;;;;;;;3.78;2.40;;;42.20;1.00;;;;;;4973813;28;20194;-77
2022/06/12 10:59:41;;;;;;;3.70;2.28;;;43.20;1.00;;;;;;4965750;28;20184;-77
2022/06/12 11:02:07;;;;;;;3.97;2.28;;;43.70;1.00;;;;;;4960126;28;20175;-77
2022/06/12 11:04:57;;;;;;;4.05;2.30;;;43.80;1.00;;;;;;4953605;29;20218;-78
2022/06/12 11:07:35;;;;;;;4.65;2.30;;;42.90;1.00;;;;;;4953640;29;20977;-78
2022/06/12 11:10:29;;;;;;;3.70;2.10;;;43.20;1.00;;;;;;4953091;28;20199;-77
2022/06/12 11:13:07;;;;;;;5.55;2.10;;;43.60;1.00;;;;;;4953410;29;20556;-79
2022/06/12 11:15:50;;;;;;;3.15;1.92;;;44.20;1.00;;;;;;4954447;29;20635;-77
2022/06/12 11:18:47;;;;;;;3.90;1.95;;;44.50;1.00;;;;;;4951684;29;20200;-78
2022/06/12 11:21:24;;;;;;;4.80;2.33;;;44.40;1.00;;;;;;4965807;28;20179;-78
2022/06/12 11:24:16;;;;;;;5.22;2.00;;;44.40;1.00;;;;;;4971341;28;20194;-78
2022/06/12 11:27:15;;;;;;;4.88;2.20;;;44.80;1.00;;;;;;4973396;28;20629;-78
2022/06/12 11:29:49;;;;;;;4.05;2.15;;;44.10;1.00;;;;;;4963797;28;20274;-77
2022/06/12 11:32:39;;;;;;;4.00;2.10;;;44.10;1.00;;;;;;4958425;28;20217;-76
2022/06/12 11:35:23;;;;;;;6.60;2.60;;;42.70;1.00;;;;;;4953322;29;20631;-77
2022/06/12 11:38:11;;;;;;;8.98;2.30;;;40.40;1.00;;;;;;4953394;29;20187;-77
2022/06/12 11:40:58;;;;;;;4.95;2.40;;;41.20;1.00;;;;;;4953775;29;20167;-77
2022/06/12 11:43:41;;;;;;;6.25;2.30;;;42.40;1.00;;;;;;4954011;29;20199;-77
2022/06/12 11:46:44;;;;;;;3.83;2.40;;;41.90;1.00;;;;;;4953945;29;20514;-77
2022/06/12 11:49:49;;;;;;;3.05;2.30;;;41.40;1.00;;;;;;4949446;28;20204;-77
2022/06/12 11:52:37;;;;;;;5.15;2.58;;;39.10;1.00;;;;;;4952577;28;20213;-77
2022/06/12 11:55:33;;;;;;;3.75;2.35;;;39.40;1.00;;;;;;4953708;29;20226;-77
2022/06/12 11:58:22;;;;;;;4.43;2.60;;;41.40;1.00;;;;;;4953464;29;20250;-77
2022/06/12 12:00:59;;;;;;;5.82;2.35;;;43.10;1.00;;;;;;4965869;28;20168;-76
2022/06/12 12:03:33;;;;;;;4.20;2.30;;;44.00;1.00;;;;;;4951864;28;20643;-77
2022/06/12 12:06:31;;;;;;;6.35;2.35;;;44.70;1.00;;;;;;4953147;28;20202;-77
2022/06/12 12:09:22;;;;;;;3.38;2.13;;;44.30;1.00;;;;;;4959946;28;20203;-77
2022/06/12 12:11:52;;;;;;;4.70;2.28;;;44.80;1.00;;;;;;4971435;28;20207;-77
2022/06/12 12:14:24;;;;;;;4.88;2.33;;;45.20;1.00;;;;;;4972739;28;20246;-77
2022/06/12 12:17:17;;;;;;;4.07;2.40;;;45.00;1.00;;;;;;4972509;28;20183;-77
2022/06/12 12:20:16;;;;;;;6.10;2.53;;;45.10;1.00;;;;;;4969976;28;20259;-76
2022/06/12 12:22:44;;;;;;;3.47;2.35;;;44.80;1.00;;;;;;4971389;28;20171;-78
2022/06/12 12:25:25;;;;;;;4.90;2.22;;;43.60;1.00;;;;;;4971068;28;20649;-77
2022/06/12 12:27:55;;;;;;;3.47;2.38;;;43.40;1.00;;;;;;4970602;28;20222;-77
2022/06/12 12:30:21;;;;;;;2.72;1.92;;;43.50;1.00;;;;;;4964506;28;20180;-77
2022/06/12 12:32:49;;;;;;;4.80;2.60;;;45.00;1.00;;;;;;4968417;28;20199;-77
2022/06/12 12:41:11;;;;;;;4.55;2.58;;;45.30;1.00;;;;;;4972016;28;20168;-77
2022/06/12 12:43:32;;;;;;;4.70;2.42;;;45.20;1.00;;;;;;4969857;28;20186;-77
2022/06/12 12:46:07;;;;;;;2.90;2.20;;;45.50;1.00;;;;;;4971753;28;20646;-77
2022/06/12 12:48:48;;;;;;;3.58;2.35;;;45.50;1.00;;;;;;4970941;28;20181;-77
2022/06/12 12:51:24;;;;;;;3.90;2.47;;;43.70;1.00;;;;;;4971044;28;20202;-77
2022/06/12 12:53:52;;;;;;;3.72;2.67;;;41.10;1.00;;;;;;4971544;28;20589;-76
2022/06/12 12:56:31;;;;;;;3.90;2.63;;;38.80;1.00;;;;;;4972065;28;20210;-77
2022/06/12 12:59:08;;;;;;;5.13;2.60;;;38.30;1.00;;;;;;4968686;28;20643;-77
2022/06/12 13:01:42;;;;;;;4.95;2.95;;;39.60;1.00;;;;;;4959690;28;20271;-77
2022/06/12 13:04:21;;;;;;;5.15;3.20;;;39.50;1.00;;;;;;4949946;29;20283;-76
2022/06/12 13:06:51;;;;;;;4.22;2.40;;;39.10;1.00;;;;;;4952416;29;20224;-77
2022/06/12 13:09:31;;;;;;;4.63;2.60;;;39.50;1.00;;;;;;4950404;29;20184;-76
2022/06/12 13:12:05;;;;;;;3.55;2.60;;;40.40;1.00;;;;;;4951739;29;20200;-75
2022/06/12 13:14:39;;;;;;;3.55;2.53;;;39.50;1.00;;;;;;4950002;28;20215;-76
2022/06/12 13:17:28;;;;;;;3.92;2.75;;;38.60;1.00;;;;;;4951548;29;20612;-76
2022/06/12 13:20:31;;;;;;;6.85;2.88;;;39.50;1.00;;;;;;4956674;28;20558;-76
2022/06/12 13:23:09;;;;;;;4.25;2.92;;;41.20;1.00;;;;;;4969830;28;20182;-77
2022/06/12 13:25:39;;;;;;;3.95;2.72;;;42.50;1.00;;;;;;4971399;28;20174;-77
2022/06/12 13:28:05;;;;;;;3.70;2.60;;;42.10;1.00;;;;;;4969640;28;20301;-77
2022/06/12 13:30:40;;;;;;;5.43;2.78;;;40.40;1.00;;;;;;4961823;28;20452;-76
2022/06/12 13:33:17;;;;;;;3.20;2.63;;;38.90;1.00;;;;;;4948570;29;20568;-76
2022/06/12 13:35:47;;;;;;;3.65;2.70;;;38.50;1.00;;;;;;4950383;29;20264;-76
2022/06/12 13:38:23;;;;;;;5.95;3.25;;;39.60;1.00;;;;;;4951267;28;20184;-76
2022/06/12 13:40:54;;;;;;;5.38;2.80;;;41.20;1.00;;;;;;4950446;29;20172;-75
2022/06/12 13:43:26;;;;;;;3.00;2.40;;;42.20;1.00;;;;;;4949979;29;20274;-77
2022/06/12 13:45:57;;;;;;;5.25;2.70;;;43.50;1.00;;;;;;4950154;29;20168;-77